sensor_id;sensor_type;location;lat;lon;timestamp;P1;durP1;ratioP1;P2;durP2;ratioP2
13002;SDS011;66869;57.706;11.922;2023-02-01T00:01:04;0.80;;;0.43;;
13002;SDS011;66869;57.706;11.922;2023-02-01T00:03:30;1.25;;;0.40;;
13002;SDS011;66869;57.706;11.922;2023-02-01T00:05:58;1.65;;;0.40;;
13002;SDS011;66869;57.706;11.922;2023-02-01T00:08:24;1.52;;;0.30;;
13002;SDS011;66869;57.706;11.922;2023-02-01T00:10:57;1.67;;;0.30;;
13002;SDS011;66869;57.706;11.922;2023-02-01T00:13:22;1.45;;;0.38;;
13002;SDS011;66869;57.706;11.922;2023-02-01T00:15:48;0.50;;;0.32;;
13002;SDS011;66869;57.706;11.922;2023-02-01T00:18:13;0.82;;;0.30;;
13002;SDS011;66869;57.706;11.922;2023-02-01T00:20:38;1.30;;;0.30;;
13002;SDS011;66869;57.706;11.922;2023-02-01T00:23:03;0.82;;;0.40;;
13002;SDS011;66869;57.706;11.922;2023-02-01T00:25:29;1.98;;;0.47;;
13002;SDS011;66869;57.706;11.922;2023-02-01T00:27:54;3.03;;;0.30;;
13002;SDS011;66869;57.706;11.922;2023-02-01T00:30:21;2.75;;;0.40;;
13002;SDS011;66869;57.706;11.922;2023-02-01T00:32:47;0.75;;;0.20;;
13002;SDS011;66869;57.706;11.922;2023-02-01T00:35:12;0.63;;;0.30;;
13002;SDS011;66869;57.706;11.922;2023-02-01T00:37:37;0.45;;;0.32;;
13002;SDS011;66869;57.706;11.922;2023-02-01T00:40:02;0.35;;;0.10;;
13002;SDS011;66869;57.706;11.922;2023-02-01T00:42:28;0.50;;;0.28;;
13002;SDS011;66869;57.706;11.922;2023-02-01T00:44:53;0.40;;;0.25;;
13002;SDS011;66869;57.706;11.922;2023-02-01T00:47:19;0.80;;;0.30;;
13002;SDS011;66869;57.706;11.922;2023-02-01T00:49:45;2.80;;;0.38;;
13002;SDS011;66869;57.706;11.922;2023-02-01T00:52:10;0.80;;;0.40;;
13002;SDS011;66869;57.706;11.922;2023-02-01T00:54:35;1.98;;;0.40;;
13002;SDS011;66869;57.706;11.922;2023-02-01T00:57:02;0.75;;;0.40;;
13002;SDS011;66869;57.706;11.922;2023-02-01T00:59:27;0.93;;;0.40;;
13002;SDS011;66869;57.706;11.922;2023-02-01T01:01:52;0.82;;;0.30;;
13002;SDS011;66869;57.706;11.922;2023-02-01T01:04:18;1.30;;;0.30;;
13002;SDS011;66869;57.706;11.922;2023-02-01T01:06:43;0.25;;;0.17;;
13002;SDS011;66869;57.706;11.922;2023-02-01T01:09:09;0.82;;;0.30;;
13002;SDS011;66869;57.706;11.922;2023-02-01T01:11:35;0.95;;;0.22;;
13002;SDS011;66869;57.706;11.922;2023-02-01T01:14:01;1.15;;;0.32;;
13002;SDS011;66869;57.706;11.922;2023-02-01T01:16:27;0.30;;;0.30;;
13002;SDS011;66869;57.706;11.922;2023-02-01T01:18:53;0.73;;;0.30;;
13002;SDS011;66869;57.706;11.922;2023-02-01T01:21:18;0.60;;;0.30;;
13002;SDS011;66869;57.706;11.922;2023-02-01T01:23:45;0.52;;;0.30;;
13002;SDS011;66869;57.706;11.922;2023-02-01T01:26:14;1.45;;;0.30;;
13002;SDS011;66869;57.706;11.922;2023-02-01T01:28:39;1.58;;;0.30;;
13002;SDS011;66869;57.706;11.922;2023-02-01T01:31:10;0.20;;;0.20;;
13002;SDS011;66869;57.706;11.922;2023-02-01T01:33:36;1.45;;;0.47;;
13002;SDS011;66869;57.706;11.922;2023-02-01T01:36:02;0.45;;;0.30;;
13002;SDS011;66869;57.706;11.922;2023-02-01T01:38:29;0.40;;;0.22;;
13002;SDS011;66869;57.706;11.922;2023-02-01T01:40:55;1.23;;;0.25;;
13002;SDS011;66869;57.706;11.922;2023-02-01T01:43:20;0.50;;;0.30;;
13002;SDS011;66869;57.706;11.922;2023-02-01T01:45:49;0.43;;;0.20;;
13002;SDS011;66869;57.706;11.922;2023-02-01T01:48:28;0.70;;;0.30;;
13002;SDS011;66869;57.706;11.922;2023-02-01T01:50:56;1.08;;;0.30;;
13002;SDS011;66869;57.706;11.922;2023-02-01T01:53:31;0.52;;;0.30;;
13002;SDS011;66869;57.706;11.922;2023-02-01T01:55:58;0.82;;;0.30;;
13002;SDS011;66869;57.706;11.922;2023-02-01T01:58:25;1.45;;;0.30;;
13002;SDS011;66869;57.706;11.922;2023-02-01T02:00:50;0.55;;;0.20;;
13002;SDS011;66869;57.706;11.922;2023-02-01T02:03:27;0.73;;;0.50;;
13002;SDS011;66869;57.706;11.922;2023-02-01T02:05:54;0.55;;;0.30;;
13002;SDS011;66869;57.706;11.922;2023-02-01T02:08:20;1.10;;;0.50;;
13002;SDS011;66869;57.706;11.922;2023-02-01T02:10:48;0.63;;;0.20;;
13002;SDS011;66869;57.706;11.922;2023-02-01T02:13:38;0.95;;;0.38;;
13002;SDS011;66869;57.706;11.922;2023-02-01T02:42:05;1.17;;;0.35;;
13002;SDS011;66869;57.706;11.922;2023-02-01T02:44:57;1.95;;;0.50;;
13002;SDS011;66869;57.706;11.922;2023-02-01T02:50:23;1.25;;;0.57;;
13002;SDS011;66869;57.706;11.922;2023-02-01T02:53:12;1.02;;;0.40;;
13002;SDS011;66869;57.706;11.922;2023-02-01T02:55:56;1.85;;;0.60;;
13002;SDS011;66869;57.706;11.922;2023-02-01T02:58:41;2.10;;;0.70;;
13002;SDS011;66869;57.706;11.922;2023-02-01T03:01:26;0.50;;;0.28;;
13002;SDS011;66869;57.706;11.922;2023-02-01T03:04:10;1.02;;;0.65;;
13002;SDS011;66869;57.706;11.922;2023-02-01T03:06:39;2.03;;;0.70;;
13002;SDS011;66869;57.706;11.922;2023-02-01T03:09:06;1.17;;;0.50;;
13002;SDS011;66869;57.706;11.922;2023-02-01T03:11:33;0.80;;;0.40;;
13002;SDS011;66869;57.706;11.922;2023-02-01T03:14:18;0.80;;;0.60;;
13002;SDS011;66869;57.706;11.922;2023-02-01T03:16:50;2.90;;;0.57;;
13002;SDS011;66869;57.706;11.922;2023-02-01T03:19:27;1.10;;;0.57;;
13002;SDS011;66869;57.706;11.922;2023-02-01T03:22:07;3.75;;;0.88;;
13002;SDS011;66869;57.706;11.922;2023-02-01T03:24:37;4.55;;;0.80;;
13002;SDS011;66869;57.706;11.922;2023-02-01T03:29:37;2.40;;;0.80;;
13002;SDS011;66869;57.706;11.922;2023-02-01T03:32:03;1.70;;;0.90;;
13002;SDS011;66869;57.706;11.922;2023-02-01T03:34:28;2.10;;;0.77;;
13002;SDS011;66869;57.706;11.922;2023-02-01T03:37:03;2.63;;;1.10;;
13002;SDS011;66869;57.706;11.922;2023-02-01T03:41:56;3.50;;;0.97;;
13002;SDS011;66869;57.706;11.922;2023-02-01T03:47:19;2.05;;;0.60;;
13002;SDS011;66869;57.706;11.922;2023-02-01T03:49:47;1.77;;;0.65;;
13002;SDS011;66869;57.706;11.922;2023-02-01T03:52:16;2.10;;;0.70;;
13002;SDS011;66869;57.706;11.922;2023-02-01T03:54:42;2.40;;;0.90;;
13002;SDS011;66869;57.706;11.922;2023-02-01T03:57:09;1.55;;;0.52;;
13002;SDS011;66869;57.706;11.922;2023-02-01T03:59:42;2.22;;;0.93;;
13002;SDS011;66869;57.706;11.922;2023-02-01T04:02:09;1.88;;;0.85;;
13002;SDS011;66869;57.706;11.922;2023-02-01T04:04:34;1.27;;;0.50;;
13002;SDS011;66869;57.706;11.922;2023-02-01T04:07:00;1.05;;;0.60;;
13002;SDS011;66869;57.706;11.922;2023-02-01T04:09:25;1.15;;;0.60;;
13002;SDS011;66869;57.706;11.922;2023-02-01T04:11:50;1.83;;;0.50;;
13002;SDS011;66869;57.706;11.922;2023-02-01T04:14:15;2.08;;;0.50;;
13002;SDS011;66869;57.706;11.922;2023-02-01T04:16:41;2.03;;;0.65;;
13002;SDS011;66869;57.706;11.922;2023-02-01T04:19:06;1.48;;;0.63;;
13002;SDS011;66869;57.706;11.922;2023-02-01T04:21:31;2.25;;;0.80;;
13002;SDS011;66869;57.706;11.922;2023-02-01T04:23:57;1.02;;;0.70;;
13002;SDS011;66869;57.706;11.922;2023-02-01T04:26:22;2.53;;;0.90;;
13002;SDS011;66869;57.706;11.922;2023-02-01T04:28:47;1.27;;;0.70;;
13002;SDS011;66869;57.706;11.922;2023-02-01T04:31:16;1.45;;;0.60;;
13002;SDS011;66869;57.706;11.922;2023-02-01T04:33:41;3.15;;;0.70;;
13002;SDS011;66869;57.706;11.922;2023-02-01T04:36:07;1.55;;;0.70;;
13002;SDS011;66869;57.706;11.922;2023-02-01T04:38:32;2.33;;;0.90;;
13002;SDS011;66869;57.706;11.922;2023-02-01T04:40:58;1.00;;;0.70;;
13002;SDS011;66869;57.706;11.922;2023-02-01T04:43:23;2.65;;;0.70;;
13002;SDS011;66869;57.706;11.922;2023-02-01T04:45:49;2.30;;;0.88;;
13002;SDS011;66869;57.706;11.922;2023-02-01T04:48:15;0.80;;;0.60;;
13002;SDS011;66869;57.706;11.922;2023-02-01T04:50:41;2.33;;;0.70;;
13002;SDS011;66869;57.706;11.922;2023-02-01T04:53:06;1.13;;;0.55;;
13002;SDS011;66869;57.706;11.922;2023-02-01T04:55:31;2.35;;;0.68;;
13002;SDS011;66869;57.706;11.922;2023-02-01T04:57:56;1.85;;;0.90;;
13002;SDS011;66869;57.706;11.922;2023-02-01T05:00:22;1.52;;;0.77;;
13002;SDS011;66869;57.706;11.922;2023-02-01T05:02:47;1.98;;;0.90;;
13002;SDS011;66869;57.706;11.922;2023-02-01T05:05:12;3.55;;;1.20;;
13002;SDS011;66869;57.706;11.922;2023-02-01T05:07:38;1.63;;;0.90;;
13002;SDS011;66869;57.706;11.922;2023-02-01T05:10:03;3.05;;;0.70;;
13002;SDS011;66869;57.706;11.922;2023-02-01T05:12:28;1.95;;;0.80;;
13002;SDS011;66869;57.706;11.922;2023-02-01T05:15:12;2.05;;;0.60;;
13002;SDS011;66869;57.706;11.922;2023-02-01T05:17:37;1.75;;;0.80;;
13002;SDS011;66869;57.706;11.922;2023-02-01T05:20:05;3.05;;;0.85;;
13002;SDS011;66869;57.706;11.922;2023-02-01T05:22:30;2.65;;;0.70;;
13002;SDS011;66869;57.706;11.922;2023-02-01T05:24:55;1.88;;;0.80;;
13002;SDS011;66869;57.706;11.922;2023-02-01T05:27:21;1.02;;;0.55;;
13002;SDS011;66869;57.706;11.922;2023-02-01T05:29:46;1.08;;;0.70;;
13002;SDS011;66869;57.706;11.922;2023-02-01T05:32:11;1.40;;;0.80;;
13002;SDS011;66869;57.706;11.922;2023-02-01T05:34:37;3.13;;;0.82;;
13002;SDS011;66869;57.706;11.922;2023-02-01T05:37:02;1.42;;;0.73;;
13002;SDS011;66869;57.706;11.922;2023-02-01T05:39:27;1.73;;;0.73;;
13002;SDS011;66869;57.706;11.922;2023-02-01T05:41:52;2.20;;;0.85;;
13002;SDS011;66869;57.706;11.922;2023-02-01T05:44:18;3.42;;;0.90;;
13002;SDS011;66869;57.706;11.922;2023-02-01T05:46:43;2.28;;;0.60;;
13002;SDS011;66869;57.706;11.922;2023-02-01T05:49:08;2.10;;;0.90;;
13002;SDS011;66869;57.706;11.922;2023-02-01T05:51:33;3.17;;;0.80;;
13002;SDS011;66869;57.706;11.922;2023-02-01T05:53:59;1.70;;;0.90;;
13002;SDS011;66869;57.706;11.922;2023-02-01T05:56:24;3.50;;;0.90;;
13002;SDS011;66869;57.706;11.922;2023-02-01T05:58:49;4.20;;;0.80;;
13002;SDS011;66869;57.706;11.922;2023-02-01T06:01:14;7.97;;;0.68;;
13002;SDS011;66869;57.706;11.922;2023-02-01T06:03:40;2.13;;;0.70;;
13002;SDS011;66869;57.706;11.922;2023-02-01T06:06:05;1.63;;;0.80;;
13002;SDS011;66869;57.706;11.922;2023-02-01T06:08:30;1.85;;;0.70;;
13002;SDS011;66869;57.706;11.922;2023-02-01T06:11:05;3.13;;;0.90;;
13002;SDS011;66869;57.706;11.922;2023-02-01T06:13:31;4.32;;;0.80;;
13002;SDS011;66869;57.706;11.922;2023-02-01T06:15:56;2.28;;;0.63;;
13002;SDS011;66869;57.706;11.922;2023-02-01T06:18:22;1.73;;;0.65;;
13002;SDS011;66869;57.706;11.922;2023-02-01T06:20:51;0.95;;;0.57;;
13002;SDS011;66869;57.706;11.922;2023-02-01T06:23:17;1.55;;;0.80;;
13002;SDS011;66869;57.706;11.922;2023-02-01T06:25:42;1.55;;;0.60;;
13002;SDS011;66869;57.706;11.922;2023-02-01T06:28:07;6.68;;;1.48;;
13002;SDS011;66869;57.706;11.922;2023-02-01T06:30:33;27.55;;;6.55;;
13002;SDS011;66869;57.706;11.922;2023-02-01T06:32:58;40.10;;;9.40;;
13002;SDS011;66869;57.706;11.922;2023-02-01T06:35:23;47.75;;;10.35;;
13002;SDS011;66869;57.706;11.922;2023-02-01T06:37:49;35.70;;;7.75;;
13002;SDS011;66869;57.706;11.922;2023-02-01T06:40:14;31.17;;;6.40;;
13002;SDS011;66869;57.706;11.922;2023-02-01T06:42:39;21.52;;;5.47;;
13002;SDS011;66869;57.706;11.922;2023-02-01T06:45:05;23.13;;;5.63;;
13002;SDS011;66869;57.706;11.922;2023-02-01T06:47:31;22.42;;;5.00;;
13002;SDS011;66869;57.706;11.922;2023-02-01T06:49:56;21.13;;;4.35;;
13002;SDS011;66869;57.706;11.922;2023-02-01T06:52:22;16.55;;;4.32;;
13002;SDS011;66869;57.706;11.922;2023-02-01T06:54:47;15.38;;;3.53;;
13002;SDS011;66869;57.706;11.922;2023-02-01T06:57:12;15.57;;;3.60;;
13002;SDS011;66869;57.706;11.922;2023-02-01T06:59:39;12.68;;;3.47;;
13002;SDS011;66869;57.706;11.922;2023-02-01T07:02:04;10.65;;;3.10;;
13002;SDS011;66869;57.706;11.922;2023-02-01T07:04:29;12.32;;;2.78;;
13002;SDS011;66869;57.706;11.922;2023-02-01T07:06:55;12.82;;;2.75;;
13002;SDS011;66869;57.706;11.922;2023-02-01T07:09:20;8.90;;;2.70;;
13002;SDS011;66869;57.706;11.922;2023-02-01T07:11:45;9.18;;;2.15;;
13002;SDS011;66869;57.706;11.922;2023-02-01T07:14:11;10.25;;;2.72;;
13002;SDS011;66869;57.706;11.922;2023-02-01T07:16:36;9.70;;;2.38;;
13002;SDS011;66869;57.706;11.922;2023-02-01T07:19:02;7.95;;;2.60;;
13002;SDS011;66869;57.706;11.922;2023-02-01T07:21:27;6.72;;;1.70;;
13002;SDS011;66869;57.706;11.922;2023-02-01T07:23:53;5.53;;;1.60;;
13002;SDS011;66869;57.706;11.922;2023-02-01T07:26:18;6.00;;;1.88;;
13002;SDS011;66869;57.706;11.922;2023-02-01T07:28:44;3.05;;;1.50;;
13002;SDS011;66869;57.706;11.922;2023-02-01T07:31:10;8.10;;;1.80;;
13002;SDS011;66869;57.706;11.922;2023-02-01T07:33:36;3.70;;;1.42;;
13002;SDS011;66869;57.706;11.922;2023-02-01T07:36:02;4.70;;;1.35;;
13002;SDS011;66869;57.706;11.922;2023-02-01T07:38:27;5.30;;;1.30;;
13002;SDS011;66869;57.706;11.922;2023-02-01T07:40:56;3.45;;;1.10;;
13002;SDS011;66869;57.706;11.922;2023-02-01T07:43:22;3.33;;;1.30;;
13002;SDS011;66869;57.706;11.922;2023-02-01T07:45:50;5.25;;;1.52;;
13002;SDS011;66869;57.706;11.922;2023-02-01T07:48:16;3.20;;;1.00;;
13002;SDS011;66869;57.706;11.922;2023-02-01T07:50:41;4.57;;;1.33;;
13002;SDS011;66869;57.706;11.922;2023-02-01T07:53:06;2.63;;;1.08;;
13002;SDS011;66869;57.706;11.922;2023-02-01T07:55:32;2.53;;;1.00;;
13002;SDS011;66869;57.706;11.922;2023-02-01T07:57:57;2.45;;;0.75;;
13002;SDS011;66869;57.706;11.922;2023-02-01T08:00:23;1.85;;;0.90;;
13002;SDS011;66869;57.706;11.922;2023-02-01T08:03:07;2.65;;;0.98;;
13002;SDS011;66869;57.706;11.922;2023-02-01T08:05:32;2.97;;;1.00;;
13002;SDS011;66869;57.706;11.922;2023-02-01T08:07:58;2.58;;;0.82;;
13002;SDS011;66869;57.706;11.922;2023-02-01T08:10:23;1.77;;;0.80;;
13002;SDS011;66869;57.706;11.922;2023-02-01T08:12:48;1.00;;;0.55;;
13002;SDS011;66869;57.706;11.922;2023-02-01T08:15:17;2.92;;;0.95;;
13002;SDS011;66869;57.706;11.922;2023-02-01T08:17:49;1.88;;;0.60;;
13002;SDS011;66869;57.706;11.922;2023-02-01T08:20:15;2.92;;;0.88;;
13002;SDS011;66869;57.706;11.922;2023-02-01T08:22:41;3.45;;;0.70;;
13002;SDS011;66869;57.706;11.922;2023-02-01T08:25:09;1.65;;;0.68;;
13002;SDS011;66869;57.706;11.922;2023-02-01T08:27:35;1.00;;;0.65;;
13002;SDS011;66869;57.706;11.922;2023-02-01T08:30:01;1.30;;;0.57;;
13002;SDS011;66869;57.706;11.922;2023-02-01T08:32:26;0.95;;;0.63;;
13002;SDS011;66869;57.706;11.922;2023-02-01T08:34:51;1.60;;;0.43;;
13002;SDS011;66869;57.706;11.922;2023-02-01T08:37:17;1.90;;;0.60;;
13002;SDS011;66869;57.706;11.922;2023-02-01T08:39:42;1.92;;;0.70;;
13002;SDS011;66869;57.706;11.922;2023-02-01T08:42:09;1.45;;;0.50;;
13002;SDS011;66869;57.706;11.922;2023-02-01T08:44:53;0.52;;;0.35;;
13002;SDS011;66869;57.706;11.922;2023-02-01T08:47:18;2.60;;;0.88;;
13002;SDS011;66869;57.706;11.922;2023-02-01T08:49:43;1.83;;;0.60;;
13002;SDS011;66869;57.706;11.922;2023-02-01T08:52:09;0.93;;;0.40;;
13002;SDS011;66869;57.706;11.922;2023-02-01T08:54:34;0.55;;;0.32;;
13002;SDS011;66869;57.706;11.922;2023-02-01T08:56:59;1.73;;;0.70;;
13002;SDS011;66869;57.706;11.922;2023-02-01T08:59:24;1.85;;;0.60;;
13002;SDS011;66869;57.706;11.922;2023-02-01T09:01:50;2.15;;;0.60;;
13002;SDS011;66869;57.706;11.922;2023-02-01T09:04:15;1.73;;;0.70;;
13002;SDS011;66869;57.706;11.922;2023-02-01T09:06:40;1.80;;;0.70;;
13002;SDS011;66869;57.706;11.922;2023-02-01T09:09:06;1.73;;;0.77;;
13002;SDS011;66869;57.706;11.922;2023-02-01T09:11:31;2.83;;;0.80;;
13002;SDS011;66869;57.706;11.922;2023-02-01T09:13:57;2.60;;;0.70;;
13002;SDS011;66869;57.706;11.922;2023-02-01T09:16:22;1.58;;;0.90;;
13002;SDS011;66869;57.706;11.922;2023-02-01T09:18:48;1.10;;;0.80;;
13002;SDS011;66869;57.706;11.922;2023-02-01T09:21:13;1.25;;;0.63;;
13002;SDS011;66869;57.706;11.922;2023-02-01T09:23:38;1.73;;;0.68;;
13002;SDS011;66869;57.706;11.922;2023-02-01T09:26:04;1.38;;;0.60;;
13002;SDS011;66869;57.706;11.922;2023-02-01T09:28:30;2.20;;;0.98;;
13002;SDS011;66869;57.706;11.922;2023-02-01T09:30:56;1.75;;;0.77;;
13002;SDS011;66869;57.706;11.922;2023-02-01T09:33:21;1.55;;;0.70;;
13002;SDS011;66869;57.706;11.922;2023-02-01T09:35:48;2.03;;;0.70;;
13002;SDS011;66869;57.706;11.922;2023-02-01T09:38:14;1.88;;;0.60;;
13002;SDS011;66869;57.706;11.922;2023-02-01T09:40:39;0.60;;;0.40;;
13002;SDS011;66869;57.706;11.922;2023-02-01T09:43:18;2.47;;;0.80;;
13002;SDS011;66869;57.706;11.922;2023-02-01T09:48:33;2.28;;;0.82;;
13002;SDS011;66869;57.706;11.922;2023-02-01T09:51:00;2.10;;;0.80;;
13002;SDS011;66869;57.706;11.922;2023-02-01T09:53:28;1.35;;;0.60;;
13002;SDS011;66869;57.706;11.922;2023-02-01T09:56:10;1.80;;;0.70;;
13002;SDS011;66869;57.706;11.922;2023-02-01T09:58:37;1.52;;;0.60;;
13002;SDS011;66869;57.706;11.922;2023-02-01T10:01:04;1.20;;;0.63;;
13002;SDS011;66869;57.706;11.922;2023-02-01T10:03:32;2.58;;;0.68;;
13002;SDS011;66869;57.706;11.922;2023-02-01T10:16:43;3.70;;;0.90;;
13002;SDS011;66869;57.706;11.922;2023-02-01T10:19:21;1.58;;;0.65;;
13002;SDS011;66869;57.706;11.922;2023-02-01T10:21:51;1.58;;;0.68;;
13002;SDS011;66869;57.706;11.922;2023-02-01T10:24:28;2.13;;;0.80;;
13002;SDS011;66869;57.706;11.922;2023-02-01T10:29:42;2.15;;;0.95;;
13002;SDS011;66869;57.706;11.922;2023-02-01T10:32:52;2.17;;;1.05;;
13002;SDS011;66869;57.706;11.922;2023-02-01T10:34:57;0.47;;;0.40;;
13002;SDS011;66869;57.706;11.922;2023-02-01T10:37:30;2.63;;;0.80;;
13002;SDS011;66869;57.706;11.922;2023-02-01T10:39:57;1.55;;;0.73;;
13002;SDS011;66869;57.706;11.922;2023-02-01T10:42:27;1.70;;;0.60;;
13002;SDS011;66869;57.706;11.922;2023-02-01T10:44:54;2.95;;;0.75;;
13002;SDS011;66869;57.706;11.922;2023-02-01T10:47:20;1.73;;;0.80;;
13002;SDS011;66869;57.706;11.922;2023-02-01T10:52:20;1.33;;;0.65;;
13002;SDS011;66869;57.706;11.922;2023-02-01T10:54:47;2.47;;;0.80;;
13002;SDS011;66869;57.706;11.922;2023-02-01T10:57:22;2.05;;;0.85;;
13002;SDS011;66869;57.706;11.922;2023-02-01T10:59:50;2.05;;;0.90;;
13002;SDS011;66869;57.706;11.922;2023-02-01T11:02:26;1.30;;;0.65;;
13002;SDS011;66869;57.706;11.922;2023-02-01T11:04:58;1.38;;;0.60;;
13002;SDS011;66869;57.706;11.922;2023-02-01T11:07:24;2.15;;;0.63;;
13002;SDS011;66869;57.706;11.922;2023-02-01T11:09:51;2.17;;;0.63;;
13002;SDS011;66869;57.706;11.922;2023-02-01T11:12:29;1.13;;;0.57;;
13002;SDS011;66869;57.706;11.922;2023-02-01T11:14:59;1.52;;;0.73;;
13002;SDS011;66869;57.706;11.922;2023-02-01T11:17:32;1.85;;;0.65;;
13002;SDS011;66869;57.706;11.922;2023-02-01T11:19:58;1.85;;;0.90;;
13002;SDS011;66869;57.706;11.922;2023-02-01T11:22:25;1.67;;;0.70;;
13002;SDS011;66869;57.706;11.922;2023-02-01T11:24:51;2.00;;;0.80;;
13002;SDS011;66869;57.706;11.922;2023-02-01T11:27:17;1.15;;;0.75;;
13002;SDS011;66869;57.706;11.922;2023-02-01T11:29:44;2.25;;;0.90;;
13002;SDS011;66869;57.706;11.922;2023-02-01T11:32:12;1.73;;;0.77;;
13002;SDS011;66869;57.706;11.922;2023-02-01T11:34:38;1.63;;;0.68;;
13002;SDS011;66869;57.706;11.922;2023-02-01T11:37:05;3.05;;;0.90;;
13002;SDS011;66869;57.706;11.922;2023-02-01T11:39:39;2.17;;;0.82;;
13002;SDS011;66869;57.706;11.922;2023-02-01T11:42:14;2.28;;;1.00;;
13002;SDS011;66869;57.706;11.922;2023-02-01T11:44:41;1.30;;;0.70;;
13002;SDS011;66869;57.706;11.922;2023-02-01T11:49:54;1.52;;;0.80;;
13002;SDS011;66869;57.706;11.922;2023-02-01T12:10:19;1.92;;;0.93;;
13002;SDS011;66869;57.706;11.922;2023-02-01T12:27:49;1.38;;;0.70;;
13002;SDS011;66869;57.706;11.922;2023-02-01T12:32:49;1.83;;;0.80;;
13002;SDS011;66869;57.706;11.922;2023-02-01T12:35:33;2.33;;;0.70;;
13002;SDS011;66869;57.706;11.922;2023-02-01T12:40:56;1.40;;;0.73;;
13002;SDS011;66869;57.706;11.922;2023-02-01T12:43:18;1.23;;;0.60;;
13002;SDS011;66869;57.706;11.922;2023-02-01T12:45:55;1.75;;;0.77;;
13002;SDS011;66869;57.706;11.922;2023-02-01T12:50:50;1.20;;;0.60;;
13002;SDS011;66869;57.706;11.922;2023-02-01T12:53:51;1.25;;;0.57;;
13002;SDS011;66869;57.706;11.922;2023-02-01T12:56:09;1.52;;;0.73;;
13002;SDS011;66869;57.706;11.922;2023-02-01T12:58:46;2.42;;;0.75;;
13002;SDS011;66869;57.706;11.922;2023-02-01T13:01:17;1.88;;;0.80;;
13002;SDS011;66869;57.706;11.922;2023-02-01T13:06:32;1.92;;;0.90;;
13002;SDS011;66869;57.706;11.922;2023-02-01T13:11:42;1.90;;;0.70;;
13002;SDS011;66869;57.706;11.922;2023-02-01T13:14:53;3.38;;;1.00;;
13002;SDS011;66869;57.706;11.922;2023-02-01T13:17:08;2.20;;;0.75;;
13002;SDS011;66869;57.706;11.922;2023-02-01T13:19:42;2.53;;;0.98;;
13002;SDS011;66869;57.706;11.922;2023-02-01T13:22:26;2.90;;;0.80;;
13002;SDS011;66869;57.706;11.922;2023-02-01T13:24:54;1.40;;;0.80;;
13002;SDS011;66869;57.706;11.922;2023-02-01T13:27:22;2.83;;;0.73;;
13002;SDS011;66869;57.706;11.922;2023-02-01T13:29:55;2.33;;;0.77;;
13002;SDS011;66869;57.706;11.922;2023-02-01T13:43:38;2.15;;;0.90;;
13002;SDS011;66869;57.706;11.922;2023-02-01T13:45:32;2.95;;;0.90;;
13002;SDS011;66869;57.706;11.922;2023-02-01T13:47:58;1.90;;;0.90;;
13002;SDS011;66869;57.706;11.922;2023-02-01T13:50:29;2.97;;;1.15;;
13002;SDS011;66869;57.706;11.922;2023-02-01T13:52:56;1.67;;;0.80;;
13002;SDS011;66869;57.706;11.922;2023-02-01T13:55:41;3.42;;;1.10;;
13002;SDS011;66869;57.706;11.922;2023-02-01T13:58:12;1.75;;;0.80;;
13002;SDS011;66869;57.706;11.922;2023-02-01T14:00:39;2.58;;;0.93;;
13002;SDS011;66869;57.706;11.922;2023-02-01T14:13:24;1.77;;;0.80;;
13002;SDS011;66869;57.706;11.922;2023-02-01T14:23:40;1.25;;;0.80;;
13002;SDS011;66869;57.706;11.922;2023-02-01T14:26:06;2.75;;;0.98;;
13002;SDS011;66869;57.706;11.922;2023-02-01T14:28:32;1.90;;;0.80;;
13002;SDS011;66869;57.706;11.922;2023-02-01T14:31:00;1.88;;;0.85;;
13002;SDS011;66869;57.706;11.922;2023-02-01T14:33:26;1.20;;;0.60;;
13002;SDS011;66869;57.706;11.922;2023-02-01T14:38:26;1.80;;;0.77;;
13002;SDS011;66869;57.706;11.922;2023-02-01T14:40:52;1.13;;;0.40;;
13002;SDS011;66869;57.706;11.922;2023-02-01T14:43:17;1.73;;;0.80;;
13002;SDS011;66869;57.706;11.922;2023-02-01T14:45:46;1.30;;;0.60;;
13002;SDS011;66869;57.706;11.922;2023-02-01T14:50:48;1.48;;;0.65;;
13002;SDS011;66869;57.706;11.922;2023-02-01T14:53:16;1.77;;;0.50;;
13002;SDS011;66869;57.706;11.922;2023-02-01T15:00:57;1.40;;;0.50;;
13002;SDS011;66869;57.706;11.922;2023-02-01T15:05:57;1.25;;;0.60;;
13002;SDS011;66869;57.706;11.922;2023-02-01T15:08:25;1.23;;;0.40;;
13002;SDS011;66869;57.706;11.922;2023-02-01T15:10:52;0.60;;;0.40;;
13002;SDS011;66869;57.706;11.922;2023-02-01T15:13:22;1.05;;;0.40;;
13002;SDS011;66869;57.706;11.922;2023-02-01T15:16:05;0.40;;;0.40;;
13002;SDS011;66869;57.706;11.922;2023-02-01T15:18:31;1.17;;;0.50;;
13002;SDS011;66869;57.706;11.922;2023-02-01T15:20:57;0.50;;;0.30;;
13002;SDS011;66869;57.706;11.922;2023-02-01T15:23:24;1.13;;;0.50;;
13002;SDS011;66869;57.706;11.922;2023-02-01T15:25:49;0.70;;;0.30;;
13002;SDS011;66869;57.706;11.922;2023-02-01T15:28:15;0.55;;;0.35;;
13002;SDS011;66869;57.706;11.922;2023-02-01T15:30:51;0.82;;;0.30;;
13002;SDS011;66869;57.706;11.922;2023-02-01T15:33:17;0.75;;;0.32;;
13002;SDS011;66869;57.706;11.922;2023-02-01T15:35:48;0.60;;;0.30;;
13002;SDS011;66869;57.706;11.922;2023-02-01T15:41:01;0.43;;;0.32;;
13002;SDS011;66869;57.706;11.922;2023-02-01T15:43:27;0.40;;;0.25;;
13002;SDS011;66869;57.706;11.922;2023-02-01T15:45:57;0.65;;;0.40;;
13002;SDS011;66869;57.706;11.922;2023-02-01T15:48:23;1.10;;;0.40;;
13002;SDS011;66869;57.706;11.922;2023-02-01T15:50:50;1.45;;;0.30;;
13002;SDS011;66869;57.706;11.922;2023-02-01T15:53:17;0.65;;;0.38;;
13002;SDS011;66869;57.706;11.922;2023-02-01T15:55:44;0.20;;;0.20;;
13002;SDS011;66869;57.706;11.922;2023-02-01T15:58:18;0.88;;;0.40;;
13002;SDS011;66869;57.706;11.922;2023-02-01T16:00:45;0.50;;;0.30;;
13002;SDS011;66869;57.706;11.922;2023-02-01T16:03:25;0.30;;;0.20;;
13002;SDS011;66869;57.706;11.922;2023-02-01T16:05:55;0.73;;;0.30;;
13002;SDS011;66869;57.706;11.922;2023-02-01T16:08:22;0.50;;;0.40;;
13002;SDS011;66869;57.706;11.922;2023-02-01T16:10:48;0.45;;;0.30;;
13002;SDS011;66869;57.706;11.922;2023-02-01T16:13:14;0.20;;;0.20;;
13002;SDS011;66869;57.706;11.922;2023-02-01T16:15:40;0.40;;;0.20;;
13002;SDS011;66869;57.706;11.922;2023-02-01T16:18:06;0.70;;;0.30;;
13002;SDS011;66869;57.706;11.922;2023-02-01T16:20:33;0.10;;;0.10;;
13002;SDS011;66869;57.706;11.922;2023-02-01T16:23:00;0.60;;;0.20;;
13002;SDS011;66869;57.706;11.922;2023-02-01T16:25:25;0.55;;;0.25;;
13002;SDS011;66869;57.706;11.922;2023-02-01T16:27:50;0.10;;;0.10;;
13002;SDS011;66869;57.706;11.922;2023-02-01T16:30:16;0.17;;;0.13;;
13002;SDS011;66869;57.706;11.922;2023-02-01T16:32:47;0.40;;;0.20;;
13002;SDS011;66869;57.706;11.922;2023-02-01T16:35:15;0.63;;;0.20;;
13002;SDS011;66869;57.706;11.922;2023-02-01T16:37:44;0.55;;;0.20;;
13002;SDS011;66869;57.706;11.922;2023-02-01T16:40:12;0.30;;;0.20;;
13002;SDS011;66869;57.706;11.922;2023-02-01T16:42:38;0.20;;;0.20;;
13002;SDS011;66869;57.706;11.922;2023-02-01T16:45:03;0.20;;;0.20;;
13002;SDS011;66869;57.706;11.922;2023-02-01T16:47:29;0.68;;;0.20;;
13002;SDS011;66869;57.706;11.922;2023-02-01T16:49:54;0.52;;;0.20;;
13002;SDS011;66869;57.706;11.922;2023-02-01T16:52:24;0.57;;;0.20;;
13002;SDS011;66869;57.706;11.922;2023-02-01T16:54:49;0.30;;;0.30;;
13002;SDS011;66869;57.706;11.922;2023-02-01T16:57:15;0.63;;;0.20;;
13002;SDS011;66869;57.706;11.922;2023-02-01T16:59:41;0.40;;;0.10;;
13002;SDS011;66869;57.706;11.922;2023-02-01T17:02:10;0.30;;;0.20;;
13002;SDS011;66869;57.706;11.922;2023-02-01T17:04:36;0.52;;;0.20;;
13002;SDS011;66869;57.706;11.922;2023-02-01T17:07:01;0.28;;;0.10;;